Pagina principale
METAR-TAF:

METAR-TAF

Aeroporti :

Aeroporto di Bruxelles-National. Zaventem

Bruxelles, Belgio

latitudine: 50-54N, longitudine: 004-32E, altezza: 55 m

Osservazione

Il bollettino è stato emesso 22 minuti fa, alle 19:50 UTC
Vento 8 kt da nord-ovest
Temperature 25°C
Umidità 74%
Pressione 1020 hPa
Visibilità: 8000 m

METAR: EBBR 251950Z 32008KT 8000 NSC 25/20 Q1020 NOSIG

Ora: 22:12 (20:12 UTC)

Previsione

Il bollettino è stato emesso 3 ore e 2 minuti fa, alle 17:10 UTC
Previsione valida dal 25 alle 18 UTC al 26 alle 24 UTC
Vento 6 kt da ovest/sud-ovest
Visibilità 10 km o più
nessuna nube inferiore a 1500 m e nessun cumulonembo

TAF: EBBR 251710Z 2518/2624 24006KT CAVOK

Osservazioni e previsioni meteorologiche di più di 4000 aeroporti (messaggi METAR e TAF).

Le stazioni disponibili sono rappresentate dai dischi gialli e rossi sulla carta.

Puntare il mouse per vedere il nome della stazione.

Clicca sopra per visualizzare le osservazioni e previsioni meteorologiche.

Per cambiare la mappa : fare clic sui pulsanti verdi con una croce nera per ingrandire, il pulsante verde con un trattino per diminuire, o sulla freccia verde per le mappe adiacenti.


METAR-TAF: